Time;durP1;ratioP1;P1;durP2;ratioP2;P2;SDS_P1;SDS_P2;PMS_P1;PMS_P2;Temp;Humidity;BMP_temperature;BMP_pressure;BME280_temperature;BME280_humidity;BME280_pressure;Samples;Min_cycle;Max_cycle;Signal;HPM_P1;HPM_P2
2022/09/14 00:00:56;;;;;;;;;7.00;6.25;;;;;24.62;59.90;99828.75;5075157;27;46132;-80
2022/09/14 00:03:22;;;;;;;;;5.25;5.25;;;;;24.62;59.54;99818.03;5075363;28;45665;-82
2022/09/14 00:05:48;;;;;;;;;5.00;4.00;;;;;24.71;59.60;99824.78;5075353;27;45384;-81
2022/09/14 00:08:14;;;;;;;;;6.00;6.00;;;;;24.72;59.44;99815.72;5074994;27;46548;-82
2022/09/14 00:10:41;;;;;;;;;7.00;5.00;;;;;24.73;59.52;99819.19;5075026;27;45902;-81
2022/09/14 00:16:32;;;;;;;;;4.00;4.00;;;;;24.70;59.14;99807.06;5075368;28;45455;-81
2022/09/14 00:19:00;;;;;;;;;6.00;4.75;;;;;24.77;59.38;99805.16;5074905;28;46874;-80
2022/09/14 00:21:26;;;;;;;;;4.00;4.00;;;;;24.79;59.35;99800.38;5075395;27;45831;-80
2022/09/14 00:23:52;;;;;;;;;5.00;4.00;;;;;24.81;59.55;99800.16;5075473;27;45614;-79
2022/09/14 00:26:19;;;;;;;;;5.50;5.00;;;;;24.83;59.46;99806.91;5075007;28;45722;-81
2022/09/14 00:28:47;;;;;;;;;4.50;4.00;;;;;24.73;59.88;99779.00;5074728;27;45687;-81
2022/09/14 00:31:13;;;;;;;;;5.00;5.00;;;;;24.84;59.67;99792.50;5073454;28;47141;-82
2022/09/14 00:33:41;;;;;;;;;5.00;4.00;;;;;24.82;59.56;99780.38;5074978;27;45631;-81
2022/09/14 00:36:11;;;;;;;;;5.00;5.00;;;;;24.85;59.76;99783.41;5075285;27;45492;-79
2022/09/14 00:38:36;;;;;;;;;7.25;5.00;;;;;24.85;59.96;99772.69;5074352;27;45806;-80
2022/09/14 00:41:04;;;;;;;;;4.25;4.25;;;;;24.86;59.99;99762.78;5074791;28;45687;-79
2022/09/14 00:46:55;;;;;;;;;5.00;5.00;;;;;24.86;60.04;99760.13;5074556;28;45611;-80
2022/09/14 00:49:26;;;;;;;;;4.25;3.75;;;;;24.86;59.89;99746.72;5074078;27;45686;-79
2022/09/14 00:52:00;;;;;;;;;5.00;4.75;;;;;24.84;60.05;99744.25;5074602;28;46623;-80
2022/09/14 00:54:26;;;;;;;;;3.00;3.00;;;;;24.84;59.74;99735.38;5074276;27;45727;-80
2022/09/14 00:56:52;;;;;;;;;4.00;4.00;;;;;24.83;60.05;99737.25;5074543;27;45592;-80
2022/09/14 00:59:23;;;;;;;;;4.25;4.25;;;;;24.77;60.03;99715.91;5074391;27;46626;-80
2022/09/14 01:01:49;;;;;;;;;4.00;4.00;;;;;24.78;59.93;99722.91;5074650;27;46228;-80
2022/09/14 01:04:14;;;;;;;;;4.00;4.00;;;;;24.80;59.93;99720.81;5074504;27;45767;-81
2022/09/14 01:06:58;;;;;;;;;4.25;4.00;;;;;24.77;60.09;99714.03;5074652;27;45835;-80
2022/09/14 01:10:02;;;;;;;;;5.00;4.50;;;;;24.79;60.04;99711.13;5073638;27;45556;-81
2022/09/14 01:13:07;;;;;;;;;6.75;4.00;;;;;24.76;60.25;99699.00;5080596;27;48073;-80
2022/09/14 01:15:51;;;;;;;;;5.50;4.00;;;;;24.74;60.42;99703.75;5074400;27;45684;-80
2022/09/14 01:18:28;;;;;;;;;4.00;3.50;;;;;24.71;60.40;99714.09;5074559;27;45492;-80
2022/09/14 01:21:03;;;;;;;;;4.00;4.00;;;;;24.65;60.33;99702.41;5074562;27;45404;-79
2022/09/14 01:23:50;;;;;;;;;5.50;3.25;;;;;24.59;60.40;99687.22;5075851;27;45833;-81
2022/09/14 01:26:32;;;;;;;;;6.75;5.00;;;;;24.57;60.47;99684.78;5075762;27;45765;-81
2022/09/14 01:29:00;;;;;;;;;4.75;4.50;;;;;24.61;60.39;99696.69;5075086;27;45894;-83
2022/09/14 01:31:41;;;;;;;;;3.50;3.50;;;;;24.56;60.09;99693.84;5074420;27;45641;-82
2022/09/14 01:34:16;;;;;;;;;4.00;3.25;;;;;24.52;60.60;99683.78;5074246;27;45775;-81
2022/09/14 01:36:50;;;;;;;;;3.50;3.00;;;;;24.41;60.51;99676.50;5074182;27;45444;-81
2022/09/14 01:39:19;;;;;;;;;3.75;3.50;;;;;24.55;61.01;99700.25;5073986;27;45625;-81
2022/09/14 01:41:46;;;;;;;;;3.75;3.75;;;;;24.42;60.95;99678.94;5073710;27;45593;-82
2022/09/14 01:44:21;;;;;;;;;7.75;5.00;;;;;24.53;60.25;99706.88;5074062;28;45913;-81
2022/09/14 01:46:52;;;;;;;;;6.00;5.00;;;;;24.50;60.58;99715.34;5073932;27;45664;-81
2022/09/14 01:49:32;;;;;;;;;3.00;3.00;;;;;24.41;60.42;99697.91;5074213;27;45543;-81
2022/09/14 01:52:10;;;;;;;;;4.00;4.00;;;;;24.51;60.75;99725.81;5077775;27;45603;-81
2022/09/14 01:54:45;;;;;;;;;4.00;3.75;;;;;24.46;60.96;99711.47;5080675;27;45842;-81
2022/09/14 02:00:33;;;;;;;;;5.00;4.00;;;;;24.51;60.69;99701.72;5074317;28;45785;-82
2022/09/14 02:03:07;;;;;;;;;3.25;3.25;;;;;24.40;61.00;99667.63;5077532;28;45589;-82
2022/09/14 02:05:39;;;;;;;;;5.00;4.00;;;;;24.50;60.76;99691.25;5077247;27;45872;-79
2022/09/14 02:08:05;;;;;;;;;5.00;4.50;;;;;24.49;60.75;99687.75;5077018;27;45796;-80
2022/09/14 02:10:31;;;;;;;;;4.25;4.00;;;;;24.44;61.18;99684.91;5076674;27;45647;-81
2022/09/14 02:16:21;;;;;;;;;4.00;3.50;;;;;24.46;61.39;99676.66;5076647;28;45829;-82
2022/09/14 02:18:47;;;;;;;;;3.50;3.25;;;;;24.43;60.94;99682.47;5077077;27;45667;-80
2022/09/14 02:21:20;;;;;;;;;4.75;4.00;;;;;24.27;61.29;99667.78;5077296;27;45716;-80
2022/09/14 02:23:48;;;;;;;;;5.25;4.75;;;;;24.33;61.06;99684.81;5076943;27;46627;-80
2022/09/14 02:26:14;;;;;;;;;6.50;3.75;;;;;24.30;61.26;99691.44;5076742;27;46040;-81
2022/09/14 02:32:21;;;;;;;;;4.25;3.00;;;;;24.31;61.05;99713.66;5076911;28;45605;-82
2022/09/14 02:35:04;;;;;;;;;4.00;4.00;;;;;24.29;61.33;99721.94;5076913;27;45608;-81
2022/09/14 02:37:53;;;;;;;;;4.00;4.00;;;;;24.22;61.23;99705.94;5076630;27;45905;-80
2022/09/14 02:40:32;;;;;;;;;3.75;3.00;;;;;24.25;61.20;99710.00;5076395;27;45639;-80
2022/09/14 02:43:28;;;;;;;;;3.00;3.00;;;;;24.26;61.02;99708.97;5076948;27;45501;-81
2022/09/14 02:46:13;;;;;;;;;4.25;4.25;;;;;24.26;61.39;99708.97;5091976;27;46858;-81
2022/09/14 02:49:31;;;;;;;;;5.25;3.00;;;;;24.24;61.26;99713.72;5076213;28;46608;-80
2022/09/14 02:52:06;;;;;;;;;3.75;3.00;;;;;24.19;60.96;99708.22;5054193;28;45795;-82
2022/09/14 02:54:34;;;;;;;;;3.25;2.50;;;;;24.12;60.96;99694.03;5053937;28;45680;-79
2022/09/14 02:57:02;;;;;;;;;4.00;3.50;;;;;24.24;61.03;99716.41;5054001;28;46405;-80
2022/09/14 02:59:27;;;;;;;;;4.00;3.00;;;;;24.22;61.16;99719.31;5053631;28;46345;-81
2022/09/14 03:01:53;;;;;;;;;3.00;3.00;;;;;24.10;60.97;99693.44;5053929;28;45874;-79
2022/09/14 03:04:18;;;;;;;;;3.75;3.50;;;;;24.12;61.13;99694.88;5036785;28;45829;-80
2022/09/14 03:06:44;;;;;;;;;4.00;4.00;;;;;24.19;60.88;99717.06;5053666;28;46654;-80
2022/09/14 03:09:09;;;;;;;;;3.00;3.00;;;;;24.18;60.89;99710.06;5053201;28;46116;-81
2022/09/14 03:11:34;;;;;;;;;4.00;4.00;;;;;24.19;61.07;99714.38;5053506;28;45629;-81
2022/09/14 03:14:00;;;;;;;;;4.50;3.75;;;;;24.04;61.54;99687.09;5053766;28;45897;-82
2022/09/14 03:16:25;;;;;;;;;3.25;3.25;;;;;24.19;60.91;99706.34;5053526;28;46481;-81
2022/09/14 03:18:51;;;;;;;;;3.00;3.00;;;;;24.20;61.01;99707.19;5036436;28;46538;-80
2022/09/14 03:21:16;;;;;;;;;3.00;3.00;;;;;24.20;60.72;99713.34;5053719;28;45642;-80
2022/09/14 03:23:44;;;;;;;;;3.75;3.25;;;;;24.16;61.07;99698.75;5054558;28;45635;-79
2022/09/14 03:26:12;;;;;;;;;3.75;2.25;;;;;24.08;61.08;99687.47;5054561;28;46679;-80
2022/09/14 03:28:38;;;;;;;;;5.75;4.50;;;;;24.17;60.93;99713.81;5071464;28;46143;-81
2022/09/14 03:31:05;;;;;;;;;4.00;3.25;;;;;24.13;61.03;99704.50;5077310;28;45607;-81
2022/09/14 03:33:31;;;;;;;;;4.00;2.75;;;;;24.13;60.55;99699.16;5076823;27;45728;-81
2022/09/14 03:35:57;;;;;;;;;5.75;5.00;;;;;24.13;60.70;99688.44;5076460;27;45687;-80
2022/09/14 03:38:25;;;;;;;;;5.50;4.00;;;;;23.94;61.23;99648.50;5076031;27;45911;-81
2022/09/14 03:40:51;;;;;;;;;3.50;3.50;;;;;24.16;60.97;99684.53;5076027;27;45667;-80
2022/09/14 03:43:17;;;;;;;;;4.75;4.75;;;;;24.17;61.10;99683.50;5075852;27;45593;-80
2022/09/14 03:45:42;;;;;;;;;3.25;3.00;;;;;24.18;60.84;99685.97;5075439;27;45498;-80
2022/09/14 03:48:10;;;;;;;;;5.25;3.50;;;;;24.07;61.25;99675.97;5075397;27;46432;-80
2022/09/14 03:50:37;;;;;;;;;4.00;3.25;;;;;24.03;60.93;99673.94;5075270;27;45523;-80
2022/09/14 03:53:03;;;;;;;;;4.50;4.50;;;;;24.16;60.92;99703.28;5075685;27;45664;-80
2022/09/14 03:55:29;;;;;;;;;3.50;3.50;;;;;24.09;60.97;99708.69;5075582;28;45631;-80
2022/09/14 03:57:54;;;;;;;;;3.00;3.00;;;;;24.11;60.96;99714.63;5075397;27;45553;-78
2022/09/14 04:03:42;;;;;;;;;4.00;3.50;;;;;24.08;61.13;99698.19;5075273;28;45627;-80
2022/09/14 04:06:08;;;;;;;;;4.50;4.25;;;;;24.01;60.96;99684.88;5075186;27;45609;-81
2022/09/14 04:08:36;;;;;;;;;4.25;4.00;;;;;24.02;61.33;99685.69;5074550;28;46275;-80
2022/09/14 04:11:22;;;;;;;;;5.00;4.00;;;;;24.03;61.44;99685.47;5075493;27;45879;-81
2022/09/14 04:13:49;;;;;;;;;6.00;3.50;;;;;23.92;61.56;99664.75;5075811;27;45559;-81
2022/09/14 04:16:15;;;;;;;;;4.50;4.00;;;;;24.03;61.43;99687.31;5074984;27;46626;-81
2022/09/14 04:18:41;;;;;;;;;3.50;3.50;;;;;23.93;61.83;99671.75;5075034;28;45877;-82
2022/09/14 04:21:11;;;;;;;;;6.00;3.00;;;;;23.96;61.43;99686.56;5075060;27;45703;-81
2022/09/14 04:23:37;;;;;;;;;3.00;3.00;;;;;23.93;61.42;99676.28;5074490;28;45792;-80
2022/09/14 04:26:16;;;;;;;;;3.00;3.00;;;;;23.87;61.73;99671.78;5075046;27;45537;-80
2022/09/14 04:28:42;;;;;;;;;4.00;4.00;;;;;23.69;61.60;99649.31;5074850;27;45929;-82
2022/09/14 04:31:09;;;;;;;;;4.00;3.00;;;;;23.86;61.31;99668.31;5074043;28;45682;-79
2022/09/14 04:33:36;;;;;;;;;5.00;4.25;;;;;23.66;61.53;99648.91;5075137;27;45863;-80
2022/09/14 04:36:07;;;;;;;;;4.50;3.00;;;;;23.81;61.88;99676.16;5074856;27;46546;-81
2022/09/14 04:38:34;;;;;;;;;5.00;4.75;;;;;23.73;61.74;99671.91;5072965;28;46460;-82
2022/09/14 04:41:04;;;;;;;;;2.25;2.25;;;;;23.42;62.02;99632.63;5074959;27;45659;-80
2022/09/14 04:43:30;;;;;;;;;5.00;3.25;;;;;23.64;61.99;99672.41;5074925;27;45795;-81
2022/09/14 04:49:17;;;;;;;;;6.50;5.00;;;;;23.37;61.97;99653.00;5074572;28;45568;-81
2022/09/14 04:51:46;;;;;;;;;4.00;3.75;;;;;23.55;62.67;99679.03;5074732;28;45759;-81
2022/09/14 04:54:16;;;;;;;;;4.00;4.00;;;;;23.48;62.35;99664.91;5074997;27;45926;-78
2022/09/14 04:56:42;;;;;;;;;2.50;2.25;;;;;23.47;62.79;99674.78;5074722;27;45618;-83
2022/09/14 04:59:08;;;;;;;;;3.75;3.75;;;;;23.41;62.58;99663.06;5089951;27;47247;-83
2022/09/14 05:01:39;;;;;;;;;4.00;4.00;;;;;23.37;62.62;99656.47;5074709;28;45675;-82
2022/09/14 05:04:05;;;;;;;;;4.00;4.00;;;;;23.32;63.25;99656.31;5072699;28;45905;-82
2022/09/14 05:06:35;;;;;;;;;3.00;3.00;;;;;23.29;63.29;99659.41;5073840;27;47271;-82
2022/09/14 05:09:02;;;;;;;;;5.00;4.25;;;;;23.25;63.28;99652.88;5072732;28;46093;-83
2022/09/14 05:11:30;;;;;;;;;6.00;4.00;;;;;23.22;63.63;99650.59;5074364;28;45561;-82
2022/09/14 05:13:57;;;;;;;;;4.25;3.50;;;;;23.13;63.39;99632.38;5074453;27;45518;-81
2022/09/14 05:16:25;;;;;;;;;5.50;4.50;;;;;23.14;63.23;99642.03;5074614;27;46501;-81
2022/09/14 05:18:53;;;;;;;;;4.50;4.00;;;;;23.13;63.61;99635.03;5074175;28;46059;-82
2022/09/14 05:21:20;;;;;;;;;6.00;5.00;;;;;23.13;63.28;99627.84;5072761;28;45631;-81
2022/09/14 05:23:46;;;;;;;;;3.50;3.50;;;;;23.11;62.93;99618.38;5074622;28;45647;-81
2022/09/14 05:26:13;;;;;;;;;3.00;3.00;;;;;23.16;63.52;99640.75;5074689;27;45601;-85
2022/09/14 05:28:39;;;;;;;;;3.75;3.00;;;;;23.12;63.26;99623.53;5074524;27;45785;-85
2022/09/14 05:34:25;;;;;;;;;4.50;4.50;;;;;23.14;63.40;99609.97;5075735;28;45602;-83
2022/09/14 05:36:51;;;;;;;;;4.25;4.25;;;;;23.09;63.24;99602.59;5085402;27;45578;-81
2022/09/14 05:39:16;;;;;;;;;6.00;5.00;;;;;23.27;63.64;99629.41;5082382;27;45612;-81
2022/09/14 05:41:41;;;;;;;;;3.75;3.00;;;;;23.30;62.90;99633.50;5084559;27;45508;-80
2022/09/14 05:44:07;;;;;;;;;5.00;4.75;;;;;23.29;63.58;99632.69;5082251;27;45702;-82
2022/09/14 05:49:54;;;;;;;;;6.00;5.00;;;;;23.36;62.82;99651.38;5077054;28;45938;-79
2022/09/14 05:52:20;;;;;;;;;4.00;3.25;;;;;23.33;63.37;99651.78;5077220;27;45660;-81
2022/09/14 05:54:46;;;;;;;;;5.00;4.00;;;;;23.38;63.34;99658.13;5077331;27;45651;-80
2022/09/14 05:57:11;;;;;;;;;5.00;4.00;;;;;23.30;63.39;99639.69;5077089;27;45683;-80
2022/09/14 05:59:36;;;;;;;;;5.00;5.00;;;;;23.42;63.58;99670.03;5076708;27;46319;-80
2022/09/14 06:02:02;;;;;;;;;5.25;5.25;;;;;23.43;63.72;99660.16;5075437;28;45708;-79
2022/09/14 06:04:28;;;;;;;;;6.00;5.25;;;;;23.41;63.84;99667.56;5076987;27;45546;-81
2022/09/14 06:06:53;;;;;;;;;6.25;5.25;;;;;23.47;63.55;99665.94;5076408;27;46530;-81
2022/09/14 06:09:19;;;;;;;;;4.25;4.25;;;;;23.48;63.11;99651.53;5076247;27;46005;-81
2022/09/14 06:11:44;;;;;;;;;4.00;4.00;;;;;23.32;63.44;99623.44;5076580;28;45481;-81
2022/09/14 06:14:10;;;;;;;;;1.25;1.25;;;;;23.37;63.33;99636.97;5076973;27;45697;-81
2022/09/14 06:19:56;;;;;;;;;6.75;6.00;;;;;23.41;63.16;99630.97;5076257;28;45944;-80
2022/09/14 06:22:22;;;;;;;;;7.50;5.75;;;;;23.42;63.71;99632.63;5091933;27;46066;-80
2022/09/14 06:24:47;;;;;;;;;6.75;6.50;;;;;23.53;63.69;99660.53;5076810;27;45555;-81
2022/09/14 06:27:14;;;;;;;;;6.00;5.00;;;;;23.42;63.53;99637.97;5080360;27;46286;-85
2022/09/14 06:29:40;;;;;;;;;7.75;6.00;;;;;23.54;63.65;99659.47;5080500;28;46361;-81
2022/09/14 06:32:05;;;;;;;;;5.25;5.25;;;;;23.52;63.54;99666.94;5078398;27;45546;-80
2022/09/14 06:34:30;;;;;;;;;4.25;3.75;;;;;23.55;63.26;99663.81;5076560;27;45929;-83
2022/09/14 06:36:56;;;;;;;;;10.00;10.00;;;;;23.57;64.01;99658.25;5076460;27;46762;-80
2022/09/14 06:39:23;;;;;;;;;6.00;5.00;;;;;23.57;63.31;99663.59;5076067;27;45922;-81
2022/09/14 06:41:50;;;;;;;;;5.75;5.00;;;;;23.49;63.11;99651.28;5076540;27;45542;-81
2022/09/14 06:44:16;;;;;;;;;5.00;5.00;;;;;23.51;63.28;99646.56;5076598;27;45787;-80
2022/09/14 06:50:04;;;;;;;;;5.25;5.00;;;;;23.57;63.03;99672.44;5075803;28;45983;-78
2022/09/14 06:52:29;;;;;;;;;4.00;4.00;;;;;23.59;63.06;99670.34;5076598;27;45652;-76
2022/09/14 06:54:54;;;;;;;;;8.50;5.00;;;;;23.62;63.10;99677.97;5076427;27;45836;-77
2022/09/14 06:57:20;;;;;;;;;6.00;6.00;;;;;23.65;63.41;99684.72;5076486;27;45704;-78
2022/09/14 06:59:45;;;;;;;;;7.00;6.00;;;;;23.52;63.58;99658.06;5075925;27;45668;-78
2022/09/14 07:05:33;;;;;;;;;5.50;5.50;;;;;23.72;63.01;99685.50;5076043;28;45632;-78
2022/09/14 07:07:59;;;;;;;;;8.00;7.00;;;;;23.63;63.33;99666.22;5075837;27;46426;-79
2022/09/14 07:10:27;;;;;;;;;7.75;6.75;;;;;23.73;63.68;99677.25;5075889;27;46793;-78
2022/09/14 07:12:53;;;;;;;;;7.25;6.00;;;;;23.78;63.35;99669.41;5076176;27;45706;-80
2022/09/14 07:15:19;;;;;;;;;5.75;5.75;;;;;23.74;63.61;99660.19;5076048;27;45511;-80
2022/09/14 07:17:45;;;;;;;;;4.75;4.00;;;;;23.72;62.83;99664.09;5075809;27;45473;-77
2022/09/14 07:20:10;;;;;;;;;8.00;6.50;;;;;23.77;62.99;99666.94;5075651;27;46313;-80
2022/09/14 07:22:36;;;;;;;;;5.25;4.25;;;;;23.87;62.79;99663.78;5075996;27;45487;-80
2022/09/14 07:25:01;;;;;;;;;6.00;6.00;;;;;23.88;63.39;99674.25;5075981;27;45808;-79
2022/09/14 07:27:26;;;;;;;;;7.00;6.25;;;;;23.87;63.63;99667.28;5075695;27;45682;-80
2022/09/14 07:29:52;;;;;;;;;5.00;5.00;;;;;23.91;63.18;99684.56;5075457;27;45782;-80
2022/09/14 07:35:39;;;;;;;;;6.75;6.00;;;;;23.92;63.27;99690.69;5074500;28;45621;-78
2022/09/14 07:38:06;;;;;;;;;9.50;8.00;;;;;23.89;63.53;99683.94;5075345;27;46975;-77
2022/09/14 07:40:31;;;;;;;;;4.50;4.00;;;;;23.81;63.22;99673.50;5075429;28;46333;-79
2022/09/14 07:42:57;;;;;;;;;8.00;7.00;;;;;23.92;63.38;99693.38;5075210;27;45730;-78
2022/09/14 07:48:44;;;;;;;;;6.50;6.50;;;;;23.90;62.94;99682.91;5074899;28;46067;-78
2022/09/14 07:51:11;;;;;;;;;5.75;5.75;;;;;24.02;63.34;99693.72;5075277;27;46194;-77
2022/09/14 07:53:41;;;;;;;;;8.25;7.00;;;;;24.00;63.13;99699.28;5073914;28;45617;-78
2022/09/14 07:56:08;;;;;;;;;6.50;5.50;;;;;24.06;63.21;99709.13;5075166;27;45870;-78
2022/09/14 07:58:34;;;;;;;;;7.00;6.00;;;;;24.05;62.99;99701.31;5073690;27;46899;-78
2022/09/14 08:04:21;;;;;;;;;6.00;6.00;;;;;24.11;62.76;99720.00;5075019;28;45667;-79
2022/09/14 08:06:46;;;;;;;;;5.00;4.75;;;;;24.16;62.77;99728.19;5074951;27;45767;-79
2022/09/14 08:09:13;;;;;;;;;6.75;6.50;;;;;24.19;62.54;99726.94;5074596;27;46763;-78
2022/09/14 08:11:39;;;;;;;;;5.00;4.00;;;;;24.20;62.31;99734.75;5074413;27;46254;-78
2022/09/14 08:14:10;;;;;;;;;4.00;3.75;;;;;24.21;62.79;99732.91;5074839;27;45818;-79
2022/09/14 08:19:57;;;;;;;;;5.00;4.75;;;;;24.23;63.09;99753.09;5074961;28;45779;-75
2022/09/14 08:22:22;;;;;;;;;6.75;6.75;;;;;24.24;62.58;99748.53;5074859;27;46023;-77
2022/09/14 08:24:47;;;;;;;;;6.50;5.75;;;;;24.25;62.90;99756.34;5074711;27;45534;-78
2022/09/14 08:27:13;;;;;;;;;6.75;6.00;;;;;24.28;62.48;99765.00;5074873;27;45773;-78
2022/09/14 08:29:38;;;;;;;;;6.50;6.25;;;;;24.31;63.07;99760.00;5074676;27;46355;-78
2022/09/14 08:35:25;;;;;;;;;6.25;6.00;;;;;24.38;62.96;99757.28;5074258;28;45673;-79
2022/09/14 08:37:50;;;;;;;;;6.50;5.50;;;;;24.43;62.74;99762.81;5074626;27;45494;-77
2022/09/14 08:40:16;;;;;;;;;8.50;6.00;;;;;24.46;62.73;99759.66;5073968;27;47664;-77
2022/09/14 08:42:43;;;;;;;;;6.50;6.25;;;;;24.47;62.61;99759.47;5074336;27;46098;-78
2022/09/14 08:45:14;;;;;;;;;6.75;5.00;;;;;24.46;62.75;99755.13;5074550;27;45714;-78
2022/09/14 08:51:04;;;;;;;;;7.00;7.00;;;;;24.50;62.47;99766.25;5074222;28;46150;-77
2022/09/14 08:53:33;;;;;;;;;7.00;6.75;;;;;24.40;62.37;99747.97;5074298;27;46297;-76
2022/09/14 08:56:06;;;;;;;;;6.75;5.00;;;;;24.54;62.45;99768.25;5074432;27;45656;-78
2022/09/14 08:58:32;;;;;;;;;6.00;5.25;;;;;24.58;61.90;99777.50;5074504;27;45737;-80
2022/09/14 09:07:53;;;;;;;;;7.50;5.25;;;;;24.68;62.22;99767.09;5073565;28;45726;-78
2022/09/14 09:10:20;;;;;;;;;6.00;5.25;;;;;24.70;61.28;99772.22;5075048;27;45454;-79
2022/09/14 09:12:52;;;;;;;;;8.00;6.50;;;;;24.55;61.76;99747.66;5076300;28;46770;-79
2022/09/14 09:15:25;;;;;;;;;6.75;5.00;;;;;24.67;61.57;99773.47;5077778;28;45995;-75
2022/09/14 09:17:58;;;;;;;;;6.25;6.00;;;;;24.69;61.53;99770.59;5077807;27;45554;-78
2022/09/14 09:20:29;;;;;;;;;6.00;6.00;;;;;24.72;61.64;99770.16;5077907;27;45579;-78
2022/09/14 09:23:17;;;;;;;;;7.50;7.00;;;;;24.74;61.28;99759.19;5077520;27;45542;-79
2022/09/14 09:25:45;;;;;;;;;7.00;6.00;;;;;24.72;61.41;99770.16;5075535;28;47124;-78
2022/09/14 09:28:12;;;;;;;;;5.00;5.00;;;;;24.73;61.47;99768.28;5077727;27;45684;-78
2022/09/14 09:30:39;;;;;;;;;7.75;6.75;;;;;24.65;61.29;99764.03;5077576;28;45619;-79
2022/09/14 09:33:04;;;;;;;;;4.25;4.25;;;;;24.74;61.70;99769.91;5077052;27;45525;-80
2022/09/14 09:35:31;;;;;;;;;7.75;5.50;;;;;24.76;61.31;99770.53;5092716;27;46009;-80
2022/09/14 09:37:56;;;;;;;;;5.75;5.50;;;;;24.70;61.42;99758.00;5076947;27;45748;-79
2022/09/14 09:40:31;;;;;;;;;6.50;6.00;;;;;24.81;61.32;99766.16;5077217;27;45751;-80
2022/09/14 09:43:08;;;;;;;;;9.75;6.50;;;;;24.77;60.59;99766.81;5077492;27;45525;-79
2022/09/14 09:45:53;;;;;;;;;8.00;6.00;;;;;24.84;60.52;99773.72;5092408;27;46422;-80
2022/09/14 09:48:22;;;;;;;;;5.00;5.00;;;;;24.87;60.17;99780.50;5076912;28;45670;-78
2022/09/14 09:50:58;;;;;;;;;4.00;4.00;;;;;24.86;60.10;99774.34;5075628;28;45578;-79
2022/09/14 09:53:24;;;;;;;;;5.75;5.00;;;;;24.93;59.84;99780.50;5092870;27;46523;-78
2022/09/14 09:55:50;;;;;;;;;4.00;4.00;;;;;24.72;59.00;99731.81;5077361;27;45992;-80
2022/09/14 09:58:28;;;;;;;;;5.00;4.25;;;;;25.01;59.00;99769.44;5075733;28;45640;-78
2022/09/14 10:01:03;;;;;;;;;5.00;5.00;;;;;25.04;58.80;99766.34;5077551;27;45759;-78
2022/09/14 10:03:36;;;;;;;;;5.25;5.25;;;;;25.08;57.93;99759.50;5077161;27;45647;-80
2022/09/14 10:06:06;;;;;;;;;4.50;4.00;;;;;25.13;57.58;99760.66;5076981;27;46419;-81
2022/09/14 10:08:33;;;;;;;;;4.00;3.50;;;;;25.15;57.25;99755.91;5076511;27;45631;-78
2022/09/14 10:11:01;;;;;;;;;4.00;4.00;;;;;25.16;57.30;99752.16;5076838;27;45534;-79
2022/09/14 10:13:32;;;;;;;;;5.00;3.00;;;;;25.22;56.85;99753.94;5076422;27;46524;-79
2022/09/14 10:16:14;;;;;;;;;5.00;4.00;;;;;25.12;56.53;99730.34;5076275;27;46145;-79
2022/09/14 10:18:48;;;;;;;;;3.25;3.00;;;;;25.26;56.70;99741.75;5076399;27;45608;-78
2022/09/14 10:21:19;;;;;;;;;4.75;4.00;;;;;25.30;56.73;99746.44;5076128;28;45581;-79
2022/09/14 10:23:45;;;;;;;;;2.75;2.75;;;;;25.34;55.93;99739.56;5076321;27;46799;-79
2022/09/14 10:26:10;;;;;;;;;3.00;3.00;;;;;25.35;55.66;99737.72;5076427;28;46190;-78
2022/09/14 10:28:37;;;;;;;;;3.50;3.00;;;;;25.21;55.71;99725.53;5076113;28;45553;-79
2022/09/14 10:31:14;;;;;;;;;3.00;3.00;;;;;25.29;55.43;99736.75;5076739;27;45700;-78
2022/09/14 10:33:40;;;;;;;;;3.00;2.00;;;;;25.29;55.40;99731.38;5076362;27;46741;-80
2022/09/14 10:36:18;;;;;;;;;2.50;2.50;;;;;25.30;54.88;99724.16;5076428;27;46027;-80
2022/09/14 10:39:09;;;;;;;;;4.00;4.00;;;;;25.24;55.66;99708.97;5076000;27;45686;-80
2022/09/14 10:41:48;;;;;;;;;3.00;3.00;;;;;25.31;54.72;99712.38;5076330;28;45576;-77
2022/09/14 10:44:38;;;;;;;;;2.75;2.75;;;;;25.31;54.15;99713.22;5075882;27;47456;-81
2022/09/14 10:50:25;;;;;;;;;2.50;2.50;;;;;25.27;53.79;99705.81;5076110;28;45537;-79
2022/09/14 10:52:59;;;;;;;;;3.00;3.00;;;;;25.26;53.88;99702.34;5076101;27;46019;-77
2022/09/14 10:55:35;;;;;;;;;3.00;3.00;;;;;25.22;53.84;99700.31;5076080;27;45536;-78
2022/09/14 10:58:26;;;;;;;;;3.00;3.00;;;;;25.34;53.50;99702.03;5075664;27;46549;-80
2022/09/14 11:01:05;;;;;;;;;2.25;2.00;;;;;25.40;53.22;99695.75;5076635;27;45546;-77
2022/09/14 11:07:14;;;;;;;;;2.50;2.00;;;;;25.59;52.67;99699.22;5075719;28;45557;-77
2022/09/14 11:09:51;;;;;;;;;4.00;3.00;;;;;25.66;52.60;99691.88;5076033;27;46186;-78
2022/09/14 11:12:33;;;;;;;;;2.75;2.00;;;;;25.75;52.41;99693.19;5075891;27;45943;-79
2022/09/14 11:15:19;;;;;;;;;2.00;2.00;;;;;25.85;52.06;99693.47;5075808;27;46026;-78
2022/09/14 11:17:50;;;;;;;;;1.75;1.00;;;;;25.94;51.69;99688.56;5074945;27;46646;-78
2022/09/14 11:20:51;;;;;;;;;2.75;2.50;;;;;26.02;50.98;99703.53;5075364;27;46363;-78
2022/09/14 11:23:29;;;;;;;;;2.75;2.00;;;;;26.03;51.38;99687.16;5052860;28;45833;-79
2022/09/14 11:26:18;;;;;;;;;2.00;2.00;;;;;26.02;50.73;99688.22;5053022;28;45798;-78
2022/09/14 11:28:52;;;;;;;;;1.25;1.25;;;;;26.06;50.94;99683.22;5052679;28;46912;-79
2022/09/14 11:31:30;;;;;;;;;2.25;2.25;;;;;26.13;51.25;99689.28;5052692;28;46273;-80
2022/09/14 11:34:15;;;;;;;;;1.00;1.00;;;;;26.13;51.22;99694.66;5052752;28;45600;-78
2022/09/14 11:36:54;;;;;;;;;1.50;1.00;;;;;26.14;50.66;99696.28;5053146;28;45687;-79
2022/09/14 11:39:48;;;;;;;;;1.00;1.00;;;;;26.16;50.66;99695.03;5052564;28;45882;-76
2022/09/14 11:42:29;;;;;;;;;2.00;2.00;;;;;26.19;50.82;99694.53;4992991;28;46238;-77
2022/09/14 11:45:06;;;;;;;;;2.00;2.00;;;;;26.23;51.10;99697.63;4993264;28;45726;-76
2022/09/14 11:51:28;;;;;;;;;1.50;1.50;;;;;26.34;50.39;99706.75;4992821;28;45650;-78
2022/09/14 11:53:54;;;;;;;;;2.00;1.75;;;;;26.39;50.00;99698.78;4992483;28;46540;-74
2022/09/14 11:56:30;;;;;;;;;2.00;1.50;;;;;26.43;50.35;99713.38;4994931;28;45784;-76
2022/09/14 11:59:03;;;;;;;;;1.00;1.00;;;;;26.47;50.53;99701.94;5028676;28;45808;-78
2022/09/14 12:01:38;;;;;;;;;2.00;2.00;;;;;26.50;50.24;99704.16;5012453;28;47262;-78
2022/09/14 12:08:05;;;;;;;;;1.75;1.75;;;;;26.52;49.72;99707.41;5012295;28;45641;-79
2022/09/14 12:10:31;;;;;;;;;1.75;1.00;;;;;26.56;48.88;99692.44;4972807;28;46007;-78
2022/09/14 12:13:08;;;;;;;;;3.00;2.00;;;;;26.63;49.46;99703.91;4972966;28;47189;-80
2022/09/14 12:15:39;;;;;;;;;2.00;2.00;;;;;26.67;49.57;99701.56;4972764;28;46330;-78
2022/09/14 12:18:05;;;;;;;;;1.50;1.25;;;;;26.69;49.59;99697.59;4975049;28;45542;-78
2022/09/14 12:20:36;;;;;;;;;1.00;1.00;;;;;26.74;49.39;99688.81;5032447;28;45579;-78
2022/09/14 12:23:26;;;;;;;;;1.75;1.75;;;;;26.76;48.67;99689.41;5032147;28;47231;-76
2022/09/14 12:26:18;;;;;;;;;2.75;2.00;;;;;26.81;48.77;99684.13;5031763;28;46244;-76
2022/09/14 12:28:54;;;;;;;;;1.00;1.00;;;;;26.84;48.83;99685.50;5026631;28;45682;-76
2022/09/14 12:31:58;;;;;;;;;2.00;2.00;;;;;26.87;48.08;99679.69;5032022;28;45563;-77
2022/09/14 12:34:30;;;;;;;;;1.25;1.00;;;;;26.90;49.02;99680.03;5031449;28;46830;-76
2022/09/14 12:37:02;;;;;;;;;2.00;1.00;;;;;26.95;48.31;99680.16;5031976;28;45978;-75
2022/09/14 12:39:33;;;;;;;;;2.00;2.00;;;;;26.95;48.40;99677.44;5031302;28;45879;-75
2022/09/14 12:42:23;;;;;;;;;2.25;1.25;;;;;26.95;48.55;99674.75;5031994;28;45818;-79
2022/09/14 12:44:48;;;;;;;;;1.00;1.00;;;;;26.96;48.74;99668.34;5030862;28;46395;-79
2022/09/14 12:47:29;;;;;;;;;0.25;0.25;;;;;26.89;48.82;99670.34;5045822;28;45674;-79
2022/09/14 12:49:59;;;;;;;;;1.00;1.00;;;;;26.80;48.53;99666.38;5074011;27;45604;-78
2022/09/14 12:53:00;;;;;;;;;2.00;1.50;;;;;26.73;48.64;99666.50;5074098;27;45699;-78
2022/09/14 12:55:40;;;;;;;;;2.00;1.50;;;;;26.64;48.42;99669.78;5072749;28;46552;-75
2022/09/14 12:58:21;;;;;;;;;0.00;0.00;;;;;26.59;48.18;99665.13;5074019;27;45852;-76
2022/09/14 13:01:28;;;;;;;;;1.75;1.75;;;;;26.49;48.67;99648.78;5074315;27;45629;-78
2022/09/14 13:07:19;;;;;;;;;2.00;1.75;;;;;26.54;48.46;99632.78;5051658;28;45610;-75
2022/09/14 13:09:51;;;;;;;;;1.00;1.00;;;;;26.63;48.08;99644.78;5051315;28;46365;-77
2022/09/14 13:12:33;;;;;;;;;1.25;1.00;;;;;26.70;47.03;99632.03;5051694;28;45618;-77
2022/09/14 13:15:03;;;;;;;;;1.00;0.00;;;;;26.76;47.67;99621.38;5052204;28;45785;-80
2022/09/14 13:17:29;;;;;;;;;2.50;1.00;;;;;26.91;46.69;99633.28;5051477;28;47907;-76